Time;durP1;ratioP1;P1;durP2;ratioP2;P2;SDS_P1;SDS_P2;PMS_P1;PMS_P2;Temp;Humidity;BMP_temperature;BMP_pressure;BME280_temperature;BME280_humidity;BME280_pressure;Samples;Min_cycle;Max_cycle;Signal;HPM_P1;HPM_P2
2021/09/03 00:01:39;;;;;;;9.80;6.75;;;;;;;13.71;75.59;96790.84;4955328;29;20066;-85
2021/09/03 00:04:07;;;;;;;9.38;6.28;;;;;;;13.72;74.46;96797.13;4954804;29;20055;-84
2021/09/03 00:06:34;;;;;;;8.50;5.95;;;;;;;13.69;74.83;96795.03;4955179;29;20495;-85
2021/09/03 00:09:00;;;;;;;9.57;6.47;;;;;;;13.68;74.17;96791.50;4955140;29;20422;-85
2021/09/03 00:11:27;;;;;;;10.85;6.97;;;;;;;13.63;74.19;96797.16;4954955;29;20051;-83
2021/09/03 00:13:54;;;;;;;10.32;6.80;;;;;;;13.59;74.77;96790.72;4955208;29;20054;-85
2021/09/03 00:16:20;;;;;;;11.50;6.78;;;;;;;13.55;75.04;96787.03;4954797;29;20419;-84
2021/09/03 00:18:47;;;;;;;11.05;6.72;;;;;;;13.53;75.11;96792.03;4955114;29;20058;-82
2021/09/03 00:21:16;;;;;;;9.88;6.63;;;;;;;13.51;75.18;96788.81;4954600;29;20047;-84
2021/09/03 00:23:42;;;;;;;10.65;7.03;;;;;;;13.49;75.51;96783.66;4955117;29;20444;-83
2021/09/03 00:26:09;;;;;;;10.25;7.55;;;;;;;13.48;76.62;96787.53;4954474;29;20506;-83
2021/09/03 00:28:35;;;;;;;10.88;7.80;;;;;;;13.45;77.06;96787.38;4954921;29;20059;-84
2021/09/03 00:31:02;;;;;;;12.07;7.75;;;;;;;13.44;77.13;96783.84;4953850;28;20058;-85
2021/09/03 00:33:29;;;;;;;13.27;7.07;;;;;;;13.44;76.59;96780.31;4954759;29;20043;-85
2021/09/03 00:35:55;;;;;;;10.95;7.38;;;;;;;13.47;75.86;96776.94;4954792;29;20058;-85
2021/09/03 00:38:23;;;;;;;10.75;7.15;;;;;;;13.47;75.50;96779.66;4954147;29;20039;-83
2021/09/03 00:40:50;;;;;;;11.27;7.60;;;;;;;13.47;75.33;96782.41;4954856;29;20054;-84
2021/09/03 00:43:16;;;;;;;10.95;7.55;;;;;;;13.46;75.63;96775.31;4954418;29;20055;-85
2021/09/03 00:45:43;;;;;;;11.75;7.70;;;;;;;13.43;75.87;96775.97;4954625;29;20043;-81
2021/09/03 00:48:09;;;;;;;13.00;8.23;;;;;;;13.38;76.17;96779.69;4954397;29;20095;-84
2021/09/03 00:50:36;;;;;;;12.80;7.72;;;;;;;13.37;76.19;96780.00;4946873;29;20047;-85
2021/09/03 00:53:04;;;;;;;11.85;7.45;;;;;;;13.36;76.11;96775.66;4958476;29;20050;-85
2021/09/03 00:55:32;;;;;;;10.75;7.03;;;;;;;13.35;75.77;96774.03;4954766;29;20055;-86
2021/09/03 00:57:59;;;;;;;10.32;7.15;;;;;;;13.36;75.65;96775.66;4954755;29;20058;-85
2021/09/03 01:00:25;;;;;;;13.13;7.38;;;;;;;13.34;75.75;96764.25;4953988;29;20047;-84
2021/09/03 01:02:52;;;;;;;12.68;7.20;;;;;;;13.31;76.92;96766.50;4954493;29;20054;-82
2021/09/03 01:05:22;;;;;;;11.55;7.28;;;;;;;13.30;77.22;96764.06;4953722;29;20047;-83
2021/09/03 01:07:49;;;;;;;9.85;6.70;;;;;;;13.33;76.68;96757.97;4954306;29;20105;-84
2021/09/03 01:10:18;;;;;;;12.77;7.35;;;;;;;13.31;76.78;96739.16;4953756;29;20047;-84
2021/09/03 01:12:46;;;;;;;10.02;7.28;;;;;;;13.32;76.92;96754.44;4954359;29;20051;-85
2021/09/03 01:15:13;;;;;;;10.68;6.60;;;;;;;13.32;76.98;96748.97;4953772;29;20494;-84
2021/09/03 01:17:40;;;;;;;10.93;7.13;;;;;;;13.35;76.63;96746.69;4954102;29;20054;-84
2021/09/03 01:20:09;;;;;;;9.43;7.03;;;;;;;13.34;76.81;96747.81;4953676;29;20130;-86
2021/09/03 01:22:37;;;;;;;11.90;7.35;;;;;;;13.37;76.48;96741.72;4954022;29;20426;-85
2021/09/03 01:25:04;;;;;;;12.65;7.82;;;;;;;13.37;76.40;96750.72;4953612;29;20098;-85
2021/09/03 01:27:31;;;;;;;9.75;6.82;;;;;;;13.34;76.54;96750.56;4953735;29;20468;-84
2021/09/03 01:29:57;;;;;;;11.63;6.95;;;;;;;13.33;76.83;96749.75;4953991;29;20047;-84
2021/09/03 01:32:24;;;;;;;11.70;7.85;;;;;;;13.29;77.11;96752.34;4951087;29;20047;-83
2021/09/03 01:34:50;;;;;;;13.35;8.38;;;;;;;13.27;77.98;96749.13;4953823;29;20051;-83
2021/09/03 01:37:17;;;;;;;11.73;7.72;;;;;;;13.26;77.87;96742.06;4953453;29;20399;-80
2021/09/03 01:39:45;;;;;;;11.18;6.90;;;;;;;13.26;77.72;96747.53;4953658;29;20051;-81
2021/09/03 01:42:12;;;;;;;10.70;7.45;;;;;;;13.28;76.94;96756.22;4952210;28;20529;-83
2021/09/03 01:44:38;;;;;;;8.90;6.47;;;;;;;13.28;76.48;96753.47;4953776;29;20048;-80
2021/09/03 01:47:05;;;;;;;9.38;6.43;;;;;;;13.26;76.40;96750.28;4953196;29;20050;-79
2021/09/03 01:49:31;;;;;;;10.82;6.85;;;;;;;13.19;76.45;96749.91;4953593;29;20050;-83
2021/09/03 01:51:58;;;;;;;10.82;6.85;;;;;;;13.11;76.42;96748.00;4953592;29;20051;-84
2021/09/03 01:54:24;;;;;;;10.90;6.95;;;;;;;13.08;76.03;96748.66;4953053;29;20043;-83
2021/09/03 01:56:52;;;;;;;11.38;7.28;;;;;;;13.02;76.34;96744.50;4953472;29;20047;-84
2021/09/03 01:59:19;;;;;;;11.82;7.55;;;;;;;12.96;76.74;96741.13;4953032;29;20051;-83
2021/09/03 02:01:45;;;;;;;10.00;7.00;;;;;;;12.94;76.62;96735.16;4953402;29;20043;-81
2021/09/03 02:04:12;;;;;;;11.75;7.32;;;;;;;12.91;76.41;96738.56;4952540;29;20047;-81
2021/09/03 02:06:38;;;;;;;12.23;7.60;;;;;;;12.88;76.60;96735.66;4953276;29;20526;-79
2021/09/03 02:09:05;;;;;;;13.80;7.38;;;;;;;12.88;76.60;96738.38;4952691;29;20047;-83
2021/09/03 02:11:32;;;;;;;13.02;8.00;;;;;;;12.85;77.17;96744.50;4953029;29;20074;-84
2021/09/03 02:13:59;;;;;;;9.77;6.93;;;;;;;12.87;76.86;96742.25;4953166;29;20051;-84
2021/09/03 02:16:26;;;;;;;10.85;7.13;;;;;;;12.84;77.18;96735.47;4952693;29;20050;-82
2021/09/03 02:18:52;;;;;;;11.98;7.18;;;;;;;12.83;76.58;96735.81;4952904;29;20051;-83
2021/09/03 02:21:19;;;;;;;12.00;7.32;;;;;;;12.79;76.45;96738.41;4952548;29;20055;-82
2021/09/03 02:23:46;;;;;;;11.30;7.00;;;;;;;12.78;76.01;96729.38;4953023;29;20055;-84
2021/09/03 02:26:12;;;;;;;7.18;4.80;;;;;;;12.77;74.70;96743.38;4952446;29;20418;-80
2021/09/03 02:28:39;;;;;;;8.98;5.93;;;;;;;12.69;73.42;96733.28;4952714;29;20055;-83
2021/09/03 02:31:07;;;;;;;11.90;6.20;;;;;;;12.61;73.74;96731.34;4952323;29;20054;-83
2021/09/03 02:33:33;;;;;;;11.07;7.10;;;;;;;12.49;75.34;96727.31;4952706;29;20047;-83
2021/09/03 02:36:00;;;;;;;11.23;7.50;;;;;;;12.47;75.99;96726.00;4952754;29;20058;-84
2021/09/03 02:38:26;;;;;;;10.30;7.45;;;;;;;12.41;76.25;96724.56;4952240;29;20039;-82
2021/09/03 02:40:53;;;;;;;11.05;7.72;;;;;;;12.36;77.40;96728.25;4952807;29;20047;-85
2021/09/03 02:43:19;;;;;;;16.08;8.27;;;;;;;12.35;78.12;96731.31;4952162;29;20058;-85
2021/09/03 02:45:46;;;;;;;10.60;7.22;;;;;;;12.35;77.48;96731.31;4952671;29;20048;-86
2021/09/03 02:48:14;;;;;;;11.80;7.63;;;;;;;12.33;78.40;96728.13;4952663;29;20425;-79
2021/09/03 02:50:41;;;;;;;12.75;8.02;;;;;;;12.33;78.19;96739.03;4952673;29;20054;-84
2021/09/03 02:53:07;;;;;;;12.00;7.75;;;;;;;12.34;77.75;96732.44;4952121;29;20055;-86
2021/09/03 02:55:34;;;;;;;12.68;7.47;;;;;;;12.34;77.81;96735.19;4952463;29;20051;-86
2021/09/03 02:58:00;;;;;;;11.02;7.55;;;;;;;12.32;78.06;96729.22;4952632;29;20047;-85
2021/09/03 03:00:27;;;;;;;13.07;7.05;;;;;;;12.34;77.33;96727.00;4952103;29;20050;-85
2021/09/03 03:02:53;;;;;;;11.10;7.00;;;;;;;12.37;76.57;96734.53;4952494;29;20040;-83
2021/09/03 03:05:22;;;;;;;9.85;6.68;;;;;;;12.33;76.57;96728.13;4952233;29;20047;-85
2021/09/03 03:07:49;;;;;;;15.75;7.47;;;;;;;12.23;76.85;96724.56;4953004;29;20051;-86
2021/09/03 03:10:15;;;;;;;10.65;7.15;;;;;;;12.18;77.38;96732.91;4952192;29;20047;-84
2021/09/03 03:12:42;;;;;;;11.55;7.35;;;;;;;12.12;77.63;96731.47;4952549;29;20094;-86
2021/09/03 03:15:10;;;;;;;12.10;7.47;;;;;;;12.10;77.68;96725.50;4952176;29;20437;-86
2021/09/03 03:17:37;;;;;;;11.57;7.45;;;;;;;12.05;77.73;96722.91;4952693;29;20053;-85
2021/09/03 03:20:04;;;;;;;13.98;7.47;;;;;;;12.00;77.77;96731.25;4952033;29;20069;-86
2021/09/03 03:22:31;;;;;;;14.43;8.32;;;;;;;11.96;77.87;96730.31;4952853;29;20058;-85
2021/09/03 03:24:58;;;;;;;11.85;8.25;;;;;;;11.96;78.07;96724.84;4952753;29;20051;-85
2021/09/03 03:27:25;;;;;;;16.75;8.38;;;;;;;11.96;78.62;96731.09;4951476;29;20043;-86
2021/09/03 03:29:51;;;;;;;12.70;8.80;;;;;;;11.94;78.50;96725.16;4952421;29;20051;-85
2021/09/03 03:32:18;;;;;;;11.77;8.60;;;;;;;11.94;78.68;96721.59;4951627;29;20058;-84
2021/09/03 03:34:45;;;;;;;12.60;7.63;;;;;;;11.96;77.79;96719.38;4952056;29;20051;-84
2021/09/03 03:37:11;;;;;;;13.60;7.88;;;;;;;11.94;77.67;96721.59;4951795;29;20074;-84
2021/09/03 03:39:39;;;;;;;8.23;5.88;;;;;;;11.94;76.60;96716.16;4952168;29;20051;-84
2021/09/03 03:42:06;;;;;;;9.73;5.65;;;;;;;11.90;74.85;96720.63;4951854;29;20494;-83
2021/09/03 03:44:33;;;;;;;9.43;6.07;;;;;;;11.86;75.04;96714.22;4951991;29;20499;-86
2021/09/03 03:46:59;;;;;;;10.80;6.55;;;;;;;11.82;75.75;96713.25;4952159;29;20047;-86
2021/09/03 03:49:26;;;;;;;12.55;6.60;;;;;;;11.75;76.13;96708.22;4951588;29;20062;-84
2021/09/03 03:51:52;;;;;;;10.38;6.53;;;;;;;11.71;76.70;96710.78;4952074;29;20062;-86
2021/09/03 03:54:19;;;;;;;12.55;6.72;;;;;;;11.68;77.15;96714.13;4951575;29;20405;-84
2021/09/03 03:56:47;;;;;;;11.75;7.63;;;;;;;11.69;77.32;96709.47;4951961;29;20051;-86
2021/09/03 03:59:14;;;;;;;11.85;7.43;;;;;;;11.66;77.07;96708.19;4951601;29;20435;-85
2021/09/03 04:01:40;;;;;;;11.55;7.60;;;;;;;11.64;77.01;96702.25;4952004;29;20058;-86
2021/09/03 04:04:07;;;;;;;14.77;8.07;;;;;;;11.63;77.61;96705.28;4951165;29;20062;-86
2021/09/03 04:06:33;;;;;;;13.27;7.93;;;;;;;11.61;77.38;96700.16;4954086;28;20055;-83
2021/09/03 04:09:00;;;;;;;12.63;8.00;;;;;;;11.61;77.44;96696.63;4955487;29;20051;-86
2021/09/03 04:11:27;;;;;;;13.60;8.45;;;;;;;11.58;77.30;96698.03;4955173;29;20051;-86
2021/09/03 04:13:55;;;;;;;11.63;8.02;;;;;;;11.61;77.72;96697.41;4955336;29;20047;-87
2021/09/03 04:16:21;;;;;;;12.35;7.65;;;;;;;11.58;77.55;96692.59;4954691;29;20055;-85
2021/09/03 04:18:48;;;;;;;11.45;7.90;;;;;;;11.56;78.58;96686.66;4955137;29;20135;-86
2021/09/03 04:21:14;;;;;;;14.20;8.85;;;;;;;11.56;79.48;96694.03;4954629;29;20047;-86
2021/09/03 04:23:41;;;;;;;13.95;8.40;;;;;;;11.59;79.02;96688.75;4955338;29;20051;-85
2021/09/03 04:26:07;;;;;;;18.45;9.52;;;;;;;11.58;79.53;96698.03;4954570;29;20118;-86
2021/09/03 04:28:34;;;;;;;15.20;8.55;;;;;;;11.57;79.23;96692.91;4955086;29;20047;-85
2021/09/03 04:31:02;;;;;;;17.25;8.95;;;;;;;11.57;79.29;96696.44;4954962;29;20048;-84
2021/09/03 04:33:28;;;;;;;15.82;8.63;;;;;;;11.56;79.59;96700.28;4954654;29;20046;-83
2021/09/03 04:35:55;;;;;;;15.90;9.63;;;;;;;11.56;79.46;96705.75;4954964;29;20047;-86
2021/09/03 04:38:22;;;;;;;14.93;9.07;;;;;;;11.56;79.85;96700.28;4953829;29;20091;-84
2021/09/03 04:40:48;;;;;;;12.38;8.45;;;;;;;11.59;79.74;96702.41;4954952;29;20055;-84
2021/09/03 04:43:15;;;;;;;14.38;9.00;;;;;;;11.61;80.16;96705.59;4954412;29;20055;-85
2021/09/03 04:45:41;;;;;;;13.57;7.93;;;;;;;11.66;78.08;96694.56;4954702;29;20047;-84
2021/09/03 04:48:09;;;;;;;12.90;8.27;;;;;;;11.65;77.71;96692.16;4954244;29;20066;-84
2021/09/03 04:50:36;;;;;;;14.32;8.98;;;;;;;11.61;78.59;96697.41;4946953;29;20424;-83
2021/09/03 04:53:03;;;;;;;13.50;8.02;;;;;;;11.65;78.54;96692.16;4954252;29;20933;-83
2021/09/03 04:55:29;;;;;;;13.43;7.88;;;;;;;11.66;77.82;96699.22;4954691;29;20066;-85
2021/09/03 04:57:56;;;;;;;12.98;8.10;;;;;;;11.63;78.66;96695.16;4954792;29;20062;-84
2021/09/03 05:00:23;;;;;;;15.00;9.23;;;;;;;11.61;79.25;96700.16;4954188;29;20046;-84
2021/09/03 05:02:49;;;;;;;14.35;8.85;;;;;;;11.65;79.05;96694.88;4954343;29;20573;-83
2021/09/03 05:05:18;;;;;;;14.88;9.30;;;;;;;11.70;78.58;96703.72;4953688;29;20051;-86
2021/09/03 05:07:45;;;;;;;14.18;8.35;;;;;;;11.72;78.55;96698.72;4954076;29;20502;-84
2021/09/03 05:10:13;;;;;;;15.30;9.00;;;;;;;11.72;77.91;96696.00;4953736;29;20054;-82
2021/09/03 05:12:41;;;;;;;15.95;8.70;;;;;;;11.71;78.47;96702.59;4954205;29;20051;-84
2021/09/03 05:15:10;;;;;;;17.00;8.50;;;;;;;11.72;78.39;96697.94;4953618;29;20058;-86
2021/09/03 05:17:37;;;;;;;13.38;8.13;;;;;;;11.68;77.88;96686.84;4936875;29;20055;-85
2021/09/03 05:20:05;;;;;;;14.02;8.40;;;;;;;11.68;78.28;96703.22;4953515;29;20051;-86
2021/09/03 05:22:33;;;;;;;11.85;7.68;;;;;;;11.70;78.81;96687.34;4954386;29;20078;-84
2021/09/03 05:25:00;;;;;;;12.98;7.22;;;;;;;11.73;77.53;96694.09;4954198;29;20051;-86
2021/09/03 05:27:26;;;;;;;12.40;7.53;;;;;;;11.71;77.26;96705.31;4953710;29;20047;-85
2021/09/03 05:29:53;;;;;;;12.68;7.85;;;;;;;11.68;77.63;96708.66;4953826;29;20055;-85
2021/09/03 05:32:19;;;;;;;12.10;8.25;;;;;;;11.68;78.27;96708.66;4953056;29;20044;-86
2021/09/03 05:34:46;;;;;;;14.23;9.05;;;;;;;11.73;79.29;96702.25;4953772;29;20118;-84
2021/09/03 05:37:12;;;;;;;13.25;8.30;;;;;;;11.77;78.95;96701.31;4952657;29;20043;-82
2021/09/03 05:39:40;;;;;;;11.77;8.50;;;;;;;11.84;79.11;96708.25;4953526;29;20047;-83
2021/09/03 05:42:07;;;;;;;12.70;7.68;;;;;;;11.87;79.27;96700.25;4953079;29;20059;-82
2021/09/03 05:44:34;;;;;;;14.35;8.82;;;;;;;11.91;79.60;96703.16;4954193;29;20110;-82
2021/09/03 05:47:00;;;;;;;16.23;9.32;;;;;;;11.97;79.42;96710.06;4952320;29;20059;-83
2021/09/03 05:49:27;;;;;;;13.95;9.27;;;;;;;12.04;79.49;96704.94;4950350;29;20054;-84
2021/09/03 05:51:53;;;;;;;14.85;8.98;;;;;;;12.11;79.43;96704.47;4950584;29;20059;-81
2021/09/03 05:54:20;;;;;;;16.15;9.75;;;;;;;12.15;79.26;96700.78;4952919;29;20047;-83
2021/09/03 05:56:48;;;;;;;14.25;9.98;;;;;;;12.19;79.49;96707.22;4953741;29;20054;-83
2021/09/03 05:59:14;;;;;;;14.88;9.80;;;;;;;12.24;80.20;96704.31;4953232;29;20047;-84
2021/09/03 06:01:41;;;;;;;15.90;10.43;;;;;;;12.31;80.45;96708.50;4953482;29;20051;-81
2021/09/03 06:04:07;;;;;;;18.23;10.90;;;;;;;12.37;80.65;96710.78;4952039;29;20051;-82
2021/09/03 06:06:34;;;;;;;16.38;10.65;;;;;;;12.45;81.35;96698.22;4953129;29;20058;-81
2021/09/03 06:09:00;;;;;;;19.70;11.07;;;;;;;12.57;81.81;96703.84;4953309;29;20506;-80
2021/09/03 06:11:27;;;;;;;15.88;9.73;;;;;;;12.66;81.53;96698.38;4953111;29;20036;-79
2021/09/03 06:13:56;;;;;;;15.77;10.20;;;;;;;12.77;80.94;96697.72;4953106;29;20529;-77
2021/09/03 06:16:24;;;;;;;16.85;10.18;;;;;;;12.84;81.30;96707.34;4953955;29;20487;-82
2021/09/03 06:18:50;;;;;;;19.10;11.40;;;;;;;12.90;81.05;96706.09;4956055;29;20058;-78
2021/09/03 06:21:18;;;;;;;18.92;10.05;;;;;;;13.02;80.59;96717.16;4953741;29;20043;-80
2021/09/03 06:23:44;;;;;;;16.77;10.68;;;;;;;13.10;79.99;96710.84;4953629;29;20047;-82
2021/09/03 06:26:11;;;;;;;14.50;9.32;;;;;;;13.20;79.16;96718.69;4952891;29;20047;-78
2021/09/03 06:28:37;;;;;;;14.88;9.85;;;;;;;13.28;79.05;96714.38;4952698;28;20081;-79
2021/09/03 06:31:05;;;;;;;13.82;9.13;;;;;;;13.34;78.76;96712.28;4952429;29;20142;-79
2021/09/03 06:33:32;;;;;;;13.57;8.90;;;;;;;13.46;78.33;96717.84;4952538;29;20055;-83
2021/09/03 06:35:58;;;;;;;11.55;8.57;;;;;;;13.53;77.88;96718.16;4952982;29;20043;-82
2021/09/03 06:38:26;;;;;;;13.23;8.80;;;;;;;13.65;78.54;96717.47;4951655;29;20054;-79
2021/09/03 06:40:52;;;;;;;13.48;9.38;;;;;;;13.74;77.78;96712.75;4952688;29;20106;-80
2021/09/03 06:43:19;;;;;;;12.68;8.93;;;;;;;13.82;77.80;96715.44;4952396;29;20043;-78
2021/09/03 06:45:45;;;;;;;14.77;8.55;;;;;;;13.96;77.68;96711.69;4952750;29;20483;-82
2021/09/03 06:48:13;;;;;;;12.40;8.82;;;;;;;14.05;77.63;96709.69;4952115;29;20051;-82
2021/09/03 06:50:40;;;;;;;12.52;7.90;;;;;;;14.11;74.55;96711.09;4952471;29;20058;-78
2021/09/03 06:53:06;;;;;;;10.85;8.05;;;;;;;14.24;75.26;96715.50;4952203;29;20043;-80
2021/09/03 06:55:33;;;;;;;13.80;7.47;;;;;;;14.29;75.19;96718.06;4952582;29;20517;-80
2021/09/03 06:57:59;;;;;;;12.52;7.22;;;;;;;14.42;75.56;96723.63;4952576;29;20070;-80
2021/09/03 07:00:26;;;;;;;10.68;7.32;;;;;;;14.53;75.48;96714.69;4952224;29;20047;-82
2021/09/03 07:02:52;;;;;;;12.93;7.30;;;;;;;14.66;74.34;96707.31;4952292;29;20517;-84
2021/09/03 07:05:20;;;;;;;11.10;7.32;;;;;;;14.69;73.44;96714.88;4952154;29;20561;-83
2021/09/03 07:07:47;;;;;;;13.57;7.95;;;;;;;14.78;73.66;96721.09;4952550;29;20062;-83
2021/09/03 07:10:14;;;;;;;10.93;7.47;;;;;;;14.91;74.15;96723.88;4952103;29;20578;-83
2021/09/03 07:12:40;;;;;;;9.95;7.10;;;;;;;14.98;73.04;96718.66;4952407;29;20055;-85
2021/09/03 07:15:09;;;;;;;15.70;7.93;;;;;;;15.07;73.80;96720.16;4951881;29;20430;-84
2021/09/03 07:17:35;;;;;;;13.57;6.93;;;;;;;15.20;72.35;96721.03;4952431;29;20074;-84
2021/09/03 07:20:02;;;;;;;10.93;6.95;;;;;;;15.31;72.30;96715.91;4951981;29;20052;-83
2021/09/03 07:22:29;;;;;;;14.40;7.53;;;;;;;15.48;71.81;96720.41;4952320;29;20043;-83
2021/09/03 07:24:56;;;;;;;10.60;7.35;;;;;;;15.71;72.16;96724.31;4952030;29;20055;-82
2021/09/03 07:27:22;;;;;;;11.95;6.55;;;;;;;16.71;68.79;96716.47;4951833;29;20059;-83
2021/09/03 07:29:49;;;;;;;8.07;5.97;;;;;;;18.20;64.54;96713.28;4952256;29;20055;-82
2021/09/03 07:32:15;;;;;;;10.10;6.20;;;;;;;19.35;59.84;96722.03;4951378;29;20059;-83
2021/09/03 07:34:42;;;;;;;8.18;5.70;;;;;;;20.43;55.25;96717.94;4952195;29;20047;-83
2021/09/03 07:37:08;;;;;;;9.43;5.90;;;;;;;21.20;53.15;96724.88;4951889;29;20491;-82
2021/09/03 07:39:37;;;;;;;11.80;5.95;;;;;;;21.87;51.99;96712.91;4951988;28;20051;-81
2021/09/03 07:42:03;;;;;;;9.52;6.20;;;;;;;22.62;48.81;96719.03;4956289;29;20047;-83
2021/09/03 07:44:30;;;;;;;7.25;5.50;;;;;;;23.28;47.84;96710.63;4955926;29;20118;-82
2021/09/03 07:46:56;;;;;;;8.63;5.00;;;;;;;23.60;44.00;96708.72;4955711;29;20048;-83
2021/09/03 07:49:23;;;;;;;9.02;5.90;;;;;;;23.89;45.24;96708.78;4955440;29;20043;-82
2021/09/03 07:51:49;;;;;;;9.65;5.80;;;;;;;24.33;44.20;96713.94;4955843;29;20051;-82
2021/09/03 07:54:16;;;;;;;8.38;5.88;;;;;;;24.70;42.65;96710.72;4955022;29;20048;-81
2021/09/03 07:56:44;;;;;;;9.18;5.18;;;;;;;24.94;41.44;96708.25;4955686;29;20058;-81
2021/09/03 07:59:11;;;;;;;7.57;5.05;;;;;;;25.14;39.65;96706.59;4954864;29;20052;-76
2021/09/03 08:01:37;;;;;;;7.78;4.95;;;;;;;25.47;41.58;96701.66;4955372;29;20422;-74
2021/09/03 08:04:04;;;;;;;11.13;5.80;;;;;;;25.65;41.53;96705.13;4954590;29;20561;-76
2021/09/03 08:06:31;;;;;;;8.43;5.03;;;;;;;25.84;40.53;96711.41;4955487;29;20554;-75
2021/09/03 08:08:57;;;;;;;7.80;5.30;;;;;;;26.00;39.01;96706.13;4955035;29;20062;-74
2021/09/03 08:11:24;;;;;;;9.80;5.45;;;;;;;26.14;39.43;96705.19;4954808;29;20051;-77
2021/09/03 08:13:51;;;;;;;7.60;5.45;;;;;;;26.39;41.60;96704.97;4955236;29;20051;-76
2021/09/03 08:16:18;;;;;;;6.78;5.18;;;;;;;26.71;40.17;96711.06;4954851;29;20074;-74
2021/09/03 08:18:44;;;;;;;6.65;4.78;;;;;;;27.10;38.85;96697.88;4954998;29;20051;-74
2021/09/03 08:21:11;;;;;;;8.23;5.38;;;;;;;27.28;37.22;96699.22;4954551;29;20051;-75
2021/09/03 08:23:38;;;;;;;7.03;4.63;;;;;;;27.48;39.22;96699.34;4955304;29;20043;-77
2021/09/03 08:26:04;;;;;;;7.22;4.78;;;;;;;27.54;37.77;96703.25;4954498;29;20506;-79
2021/09/03 08:28:33;;;;;;;6.43;5.05;;;;;;;27.56;35.05;96708.44;4955170;29;20055;-78
2021/09/03 08:31:01;;;;;;;7.75;5.18;;;;;;;27.72;36.52;96711.44;4954749;29;20053;-77
2021/09/03 08:33:28;;;;;;;6.78;4.80;;;;;;;27.95;36.32;96712.69;4954199;28;20047;-77
2021/09/03 08:35:54;;;;;;;6.90;5.07;;;;;;;28.08;34.31;96713.66;4954485;29;20054;-80
2021/09/03 08:38:21;;;;;;;6.22;4.80;;;;;;;28.27;35.79;96710.16;4954186;29;20063;-79
2021/09/03 08:40:48;;;;;;;9.25;4.82;;;;;;;28.51;34.31;96715.81;4954581;29;20043;-79
2021/09/03 08:43:19;;;;;;;7.35;4.80;;;;;;;28.25;34.98;96711.81;4954147;29;20058;-79
2021/09/03 08:45:46;;;;;;;7.63;6.82;;;;;;;28.37;33.88;96711.22;4954707;29;20044;-78
2021/09/03 08:48:18;;;;;;;8.20;5.18;;;;;;;28.65;34.83;96701.50;4953672;29;20051;-78
2021/09/03 08:50:44;;;;;;;5.90;4.70;;;;;;;28.73;35.16;96705.78;4954431;29;20051;-80
2021/09/03 08:53:16;;;;;;;10.40;5.43;;;;;;;28.98;35.03;96707.34;4953560;28;20058;-81
2021/09/03 08:55:43;;;;;;;6.45;4.70;;;;;;;29.05;33.07;96710.78;4954475;29;20051;-79
2021/09/03 08:58:10;;;;;;;7.95;4.70;;;;;;;29.20;35.42;96705.69;4954096;29;20043;-77
2021/09/03 09:00:37;;;;;;;8.80;5.40;;;;;;;29.25;34.42;96707.97;4954465;29;20516;-80
2021/09/03 09:03:07;;;;;;;7.05;5.10;;;;;;;29.22;34.50;96708.81;4952996;29;20134;-78
2021/09/03 09:05:50;;;;;;;6.50;4.70;;;;;;;29.38;32.62;96717.28;4954212;29;20071;-78
2021/09/03 09:08:19;;;;;;;;;;;;;;;29.52;31.63;96723.84;4954397;29;20058;-79
2021/09/03 09:10:50;;;;;;;6.93;4.50;;;;;;;29.63;35.30;96705.56;4954287;29;20014;-78
2021/09/03 09:13:19;;;;;;;7.53;4.83;;;;;;;29.79;32.75;96707.59;4953387;29;20135;-78
2021/09/03 09:16:09;;;;;;;6.35;4.63;;;;;;;29.76;31.39;96708.50;4954206;29;20051;-78
2021/09/03 09:18:44;;;;;;;7.43;4.88;;;;;;;29.58;32.80;96710.91;4953492;29;20051;-79
2021/09/03 09:21:21;;;;;;;7.32;4.38;;;;;;;29.81;34.23;96702.38;4953442;29;20055;-80
2021/09/03 09:23:52;;;;;;;8.18;4.65;;;;;;;29.96;33.32;96705.59;4954036;29;20043;-78
2021/09/03 09:26:21;;;;;;;9.88;4.85;;;;;;;30.10;33.77;96704.47;4953501;29;20056;-77
2021/09/03 09:28:49;;;;;;;6.63;4.30;;;;;;;29.79;30.58;96690.75;4953946;29;20483;-78
2021/09/03 09:31:35;;;;;;;7.07;4.68;;;;;;;29.49;32.74;96689.00;4953350;29;20051;-78
2021/09/03 09:34:16;;;;;;;6.72;4.97;;;;;;;29.50;32.53;96689.81;4952608;29;20070;-78
2021/09/03 09:36:44;;;;;;;8.15;5.25;;;;;;;29.21;36.03;96690.44;4953160;29;20529;-78
2021/09/03 09:39:11;;;;;;;11.10;4.72;;;;;;;28.75;32.84;96691.31;4952229;29;20051;-78
2021/09/03 09:41:38;;;;;;;6.45;4.50;;;;;;;28.27;32.48;96684.97;4953783;29;20047;-79
2021/09/03 09:44:04;;;;;;;6.22;4.18;;;;;;;27.61;35.77;96682.78;4953342;29;20051;-79
2021/09/03 09:46:32;;;;;;;7.50;4.78;;;;;;;27.08;37.55;96678.72;4953573;29;20047;-78
2021/09/03 09:49:12;;;;;;;7.60;5.15;;;;;;;26.56;37.82;96684.47;4953755;29;20058;-79
2021/09/03 09:51:42;;;;;;;8.30;4.90;;;;;;;26.03;37.90;96680.16;4953360;29;20492;-78
2021/09/03 09:54:14;;;;;;;7.03;4.78;;;;;;;25.57;38.62;96678.47;4953012;29;20051;-78
2021/09/03 09:56:43;;;;;;;12.20;5.60;;;;;;;25.14;38.62;96673.16;4953762;29;20196;-76
2021/09/03 09:59:11;;;;;;;7.20;5.25;;;;;;;24.96;42.39;96661.28;4953052;29;20054;-77
2021/09/03 10:01:39;;;;;;;10.23;4.72;;;;;;;24.81;41.76;96663.34;4953322;28;20516;-78
2021/09/03 10:04:08;;;;;;;7.03;5.10;;;;;;;24.77;42.10;96658.97;4952087;28;20072;-77
2021/09/03 10:06:36;;;;;;;7.40;4.90;;;;;;;24.71;43.47;96656.59;4953101;29;20058;-77
2021/09/03 10:09:04;;;;;;;9.18;5.18;;;;;;;24.60;44.80;96655.06;4952934;29;20055;-78
2021/09/03 10:11:32;;;;;;;7.43;5.05;;;;;;;24.52;41.98;96659.84;4953104;29;20051;-78
2021/09/03 10:13:59;;;;;;;6.20;4.68;;;;;;;24.50;42.96;96659.47;4953434;29;20051;-77
2021/09/03 10:16:25;;;;;;;7.47;4.85;;;;;;;24.39;44.84;96661.47;4946011;29;20399;-76
2021/09/03 10:18:55;;;;;;;7.10;4.90;;;;;;;24.37;42.69;96656.28;4952996;29;20044;-78
2021/09/03 10:21:24;;;;;;;7.20;5.25;;;;;;;24.29;42.23;96656.69;4951960;29;20043;-78
2021/09/03 10:23:55;;;;;;;7.70;5.25;;;;;;;24.30;43.11;96659.06;4953168;29;20426;-76
2021/09/03 10:26:26;;;;;;;6.70;4.80;;;;;;;24.31;43.01;96655.09;4951977;29;20414;-77
2021/09/03 10:29:20;;;;;;;8.75;5.13;;;;;;;24.27;41.15;96661.84;4951575;29;20058;-78
2021/09/03 10:32:25;;;;;;;6.85;5.03;;;;;;;24.08;43.96;96658.31;4950832;29;20043;-78
2021/09/03 10:35:00;;;;;;;7.10;5.28;;;;;;;23.98;43.67;96653.56;4932801;29;20048;-78
2021/09/03 10:37:38;;;;;;;6.47;4.78;;;;;;;23.99;44.07;96648.78;4933398;29;20458;-78
2021/09/03 10:40:13;;;;;;;7.68;5.80;;;;;;;23.84;43.63;96650.75;4914399;29;20048;-78
2021/09/03 10:42:45;;;;;;;6.78;4.80;;;;;;;23.71;45.06;96649.59;4914716;29;20063;-79
2021/09/03 10:45:16;;;;;;;8.18;5.15;;;;;;;23.62;46.21;96641.59;4914073;29;20482;-76
2021/09/03 10:47:46;;;;;;;7.72;5.05;;;;;;;23.67;46.08;96633.69;4914395;29;20617;-76
2021/09/03 10:50:17;;;;;;;9.05;5.75;;;;;;;23.67;45.82;96639.25;4914033;29;20049;-78
2021/09/03 10:53:14;;;;;;;9.85;5.68;;;;;;;23.65;45.57;96636.09;4914863;29;20527;-77
2021/09/03 10:55:49;;;;;;;8.35;5.47;;;;;;;23.57;45.72;96628.88;4911863;29;20048;-78
2021/09/03 10:58:30;;;;;;;8.98;5.50;;;;;;;23.52;46.37;96632.06;4913748;29;20052;-78
2021/09/03 11:01:32;;;;;;;7.57;5.10;;;;;;;23.49;45.16;96620.94;4914505;29;20059;-78
2021/09/03 11:04:00;;;;;;;7.85;5.30;;;;;;;23.40;46.26;96624.91;4930431;29;20048;-80
2021/09/03 11:06:33;;;;;;;7.70;5.97;;;;;;;23.34;46.14;96631.25;4932912;29;20126;-76
2021/09/03 11:09:03;;;;;;;7.47;5.07;;;;;;;23.35;46.29;96625.31;4933410;29;20051;-76
2021/09/03 11:11:31;;;;;;;7.95;5.18;;;;;;;23.31;46.76;96621.72;4933201;29;20040;-76
2021/09/03 11:13:59;;;;;;;7.72;5.63;;;;;;;23.31;46.37;96627.28;4933369;29;20054;-76
2021/09/03 11:16:36;;;;;;;7.82;4.95;;;;;;;23.31;47.78;96620.94;4936536;29;20047;-76
2021/09/03 11:19:04;;;;;;;10.82;5.55;;;;;;;23.24;45.54;96621.72;4936743;29;20044;-77
2021/09/03 11:21:32;;;;;;;7.43;5.03;;;;;;;23.27;46.89;96617.34;4937015;29;20047;-76
2021/09/03 11:24:00;;;;;;;9.63;5.65;;;;;;;23.30;48.05;96617.34;4937080;29;20063;-77
2021/09/03 11:26:28;;;;;;;9.68;6.30;;;;;;;23.25;46.18;96622.50;4936490;29;20059;-77
2021/09/03 11:28:56;;;;;;;8.63;5.72;;;;;;;23.21;48.06;96616.16;4936834;29;20056;-76
2021/09/03 11:31:22;;;;;;;7.88;5.07;;;;;;;23.23;47.63;96617.34;4936496;29;20047;-76
2021/09/03 11:33:50;;;;;;;7.20;5.03;;;;;;;23.22;47.74;96612.97;4936013;29;20415;-74